Time;durP1;ratioP1;P1;durP2;ratioP2;P2;SDS_P1;SDS_P2;PMS_P1;PMS_P2;Temp;Humidity;BMP_temperature;BMP_pressure;BME280_temperature;BME280_humidity;BME280_pressure;Samples;Min_cycle;Max_cycle;Signal;HPM_P1;HPM_P2
2021/07/28 00:00:55;;;;;;;;;;;;;;;16.76;70.96;101349.94;5112400;28;20298;-74
2021/07/28 00:03:21;;;;;;;;;;;;;;;16.58;71.43;101353.03;5115477;28;20401;-73
2021/07/28 00:05:48;;;;;;;;;;;;;;;16.55;70.96;101354.09;5116156;28;19939;-73
2021/07/28 00:08:16;;;;;;;;;;;;;;;16.62;70.77;101331.72;5116358;28;20293;-73
2021/07/28 00:10:43;;;;;;;;;;;;;;;16.56;71.01;101340.00;5115970;28;20274;-73
2021/07/28 00:13:09;;;;;;;;;;;;;;;16.44;71.88;101344.38;5116616;28;19924;-73
2021/07/28 00:15:36;;;;;;;;;;;;;;;16.74;69.71;101346.56;5116160;28;19924;-73
2021/07/28 00:18:10;;;;;;;;;;;;;;;16.63;70.81;101340.44;5116113;28;19935;-73
2021/07/28 00:23:19;;;;;;;;;;;;;;;16.54;71.44;101337.50;5115919;28;19928;-73
2021/07/28 00:25:47;;;;;;;;;;;;;;;16.44;71.40;101338.25;5115811;28;19953;-73
2021/07/28 00:28:14;;;;;;;;;;;;;;;16.47;70.92;101327.53;5116310;28;19924;-73
2021/07/28 00:30:41;;;;;;;;;;;;;;;16.45;71.11;101330.28;5115583;28;19924;-73
2021/07/28 00:33:08;;;;;;;;;;;;;;;16.27;71.43;101323.69;5116218;28;19947;-73
2021/07/28 00:35:34;;;;;;;;;;;;;;;16.38;71.32;101329.00;5115850;28;19923;-73
2021/07/28 00:38:04;;;;;;;;;;;;;;;16.23;71.54;101328.28;5115703;28;20298;-73
2021/07/28 00:40:32;;;;;;;;;;;;;;;16.38;71.14;101315.88;5115475;28;19930;-73
2021/07/28 00:43:09;;;;;;;;;;;;;;;16.41;70.97;101317.47;5116008;28;19931;-73
2021/07/28 00:45:35;;;;;;;;;;;;;;;16.42;71.13;101312.09;5115341;28;19924;-73
2021/07/28 00:48:02;;;;;;;;;;;;;;;16.27;71.83;101315.81;5115609;28;20388;-73
2021/07/28 00:50:28;;;;;;;;;;;;;;;16.31;71.52;101306.75;5115792;28;19923;-73
2021/07/28 00:52:58;;;;;;;;;;;;;;;16.18;72.00;101305.94;5115466;28;19924;-73
2021/07/28 00:55:25;;;;;;;;;;;;;;;16.11;72.29;101305.53;5115746;28;19923;-73
2021/07/28 00:57:54;;;;;;;;;;;;;;;16.08;72.23;101305.72;5115403;28;19930;-73
2021/07/28 01:00:20;;;;;;;;;;;;;;;15.97;72.77;101306.47;5115372;28;19924;-73
2021/07/28 01:02:47;;;;;;;;;;;;;;;15.87;73.17;101308.06;5115048;28;19930;-73
2021/07/28 01:05:13;;;;;;;;;;;;;;;15.87;72.58;101308.91;5115192;28;19924;-73
2021/07/28 01:07:40;;;;;;;;;;;;;;;15.93;72.11;101309.41;5114887;28;19924;-73
2021/07/28 01:10:07;;;;;;;;;;;;;;;15.86;72.61;101315.09;5115167;28;19924;-73
2021/07/28 01:12:41;;;;;;;;;;;;;;;15.73;72.85;101306.38;5114401;28;20388;-73
2021/07/28 01:15:10;;;;;;;;;;;;;;;15.68;72.96;101303.19;5115370;28;19924;-73
2021/07/28 01:17:36;;;;;;;;;;;;;;;15.66;72.88;101298.06;5114938;28;19924;-73
2021/07/28 01:20:06;;;;;;;;;;;;;;;15.63;72.60;101295.63;5115262;28;19928;-73
2021/07/28 01:22:33;;;;;;;;;;;;;;;15.54;73.69;101300.66;5114615;28;19927;-73
2021/07/28 01:25:01;;;;;;;;;;;;;;;15.59;73.12;101290.69;5114899;28;20401;-73
2021/07/28 01:27:27;;;;;;;;;;;;;;;15.71;72.29;101289.06;5115037;28;19946;-73
2021/07/28 01:29:54;;;;;;;;;;;;;;;15.72;72.60;101291.59;5114662;28;19931;-73
2021/07/28 01:32:21;;;;;;;;;;;;;;;15.76;72.40;101285.19;5114603;28;19924;-73
2021/07/28 01:34:47;;;;;;;;;;;;;;;15.64;73.53;101283.34;5114388;28;20366;-73
2021/07/28 01:37:15;;;;;;;;;;;;;;;15.60;73.53;101284.53;5114627;28;19931;-73
2021/07/28 01:39:41;;;;;;;;;;;;;;;15.55;73.57;101271.72;5114553;28;19923;-73
2021/07/28 01:42:09;;;;;;;;;;;;;;;15.57;73.64;101274.25;5114539;28;19924;-73
2021/07/28 01:44:37;;;;;;;;;;;;;;;15.63;73.46;101271.19;5114572;28;19931;-73
2021/07/28 01:47:04;;;;;;;;;;;;;;;15.58;73.38;101273.28;5114363;28;20463;-73
2021/07/28 01:49:31;;;;;;;;;;;;;;;15.47;75.29;101279.28;5114131;28;19931;-73
2021/07/28 01:51:57;;;;;;;;;;;;;;;15.51;74.27;101267.63;5114318;28;20378;-73
2021/07/28 01:54:24;;;;;;;;;;;;;;;15.58;74.42;101266.25;5114531;28;19924;-73
2021/07/28 01:56:51;;;;;;;;;;;;;;;15.55;74.49;101269.09;5113790;28;19923;-73
2021/07/28 01:59:21;;;;;;;;;;;;;;;15.62;73.98;101259.03;5114192;28;19924;-73
2021/07/28 02:01:47;;;;;;;;;;;;;;;15.67;74.31;101251.69;5114032;28;19930;-72
2021/07/28 02:04:14;;;;;;;;;;;;;;;15.69;73.83;101262.94;5114160;28;20381;-73
2021/07/28 02:06:40;;;;;;;;;;;;;;;15.61;74.08;101259.97;5114345;28;20005;-73
2021/07/28 02:09:07;;;;;;;;;;;;;;;15.62;73.82;101254.63;5113926;28;19931;-73
2021/07/28 02:11:34;;;;;;;;;;;;;;;15.62;73.76;101257.25;5113677;28;20361;-73
2021/07/28 02:14:01;;;;;;;;;;;;;;;15.57;74.03;101240.16;5113819;28;20382;-73
2021/07/28 02:16:29;;;;;;;;;;;;;;;15.55;73.77;101245.50;5114087;28;19930;-72
2021/07/28 02:18:56;;;;;;;;;;;;;;;15.44;73.94;101240.97;5113858;28;19938;-73
2021/07/28 02:21:22;;;;;;;;;;;;;;;15.43;73.84;101236.66;5113807;28;19924;-73
2021/07/28 02:23:49;;;;;;;;;;;;;;;15.51;74.03;101230.06;5113489;28;19923;-73
2021/07/28 02:26:15;;;;;;;;;;;;;;;15.34;74.68;101223.38;5113306;28;19924;-73
2021/07/28 02:28:42;;;;;;;;;;;;;;;15.25;74.79;101228.25;5113372;27;19931;-73
2021/07/28 02:31:08;;;;;;;;;;;;;;;15.31;74.45;101218.31;5113912;28;20014;-73
2021/07/28 02:33:36;;;;;;;;;;;;;;;15.27;74.79;101227.34;5113264;28;19924;-73
2021/07/28 02:36:03;;;;;;;;;;;;;;;15.27;75.04;101216.84;5113363;27;19935;-73
2021/07/28 02:38:30;;;;;;;;;;;;;;;15.36;74.91;101221.44;5113213;28;19931;-73
2021/07/28 02:40:56;;;;;;;;;;;;;;;15.23;74.98;101218.81;5113452;28;19930;-73
2021/07/28 02:43:23;;;;;;;;;;;;;;;15.32;74.59;101212.97;5113730;28;20297;-73
2021/07/28 02:45:49;;;;;;;;;;;;;;;15.34;74.94;101216.34;5113324;28;19928;-73
2021/07/28 02:48:16;;;;;;;;;;;;;;;15.44;74.52;101214.75;5113268;28;19924;-73
2021/07/28 02:50:44;;;;;;;;;;;;;;;15.49;74.63;101206.59;5113044;28;20005;-73
2021/07/28 02:53:11;;;;;;;;;;;;;;;15.61;74.05;101207.50;5113232;28;19924;-73
2021/07/28 02:55:37;;;;;;;;;;;;;;;15.67;73.79;101207.94;5113257;28;20289;-73
2021/07/28 02:58:04;;;;;;;;;;;;;;;15.72;73.83;101210.28;5113404;28;19935;-73
2021/07/28 03:00:30;;;;;;;;;;;;;;;15.86;73.53;101202.28;5112823;28;20378;-73
2021/07/28 03:02:57;;;;;;;;;;;;;;;15.92;74.13;101197.53;5113083;28;19924;-73
2021/07/28 03:05:23;;;;;;;;;;;;;;;16.10;73.42;101204.94;5113400;28;19928;-73
2021/07/28 03:07:51;;;;;;;;;;;;;;;16.13;74.04;101198.63;5112720;28;20366;-73
2021/07/28 03:10:18;;;;;;;;;;;;;;;16.29;73.92;101188.72;5112934;28;20289;-73
2021/07/28 03:12:45;;;;;;;;;;;;;;;16.32;73.61;101191.13;5113020;28;19924;-73
2021/07/28 03:15:11;;;;;;;;;;;;;;;16.38;73.74;101191.63;5112894;28;19931;-73
2021/07/28 03:17:38;;;;;;;;;;;;;;;16.48;73.94;101190.84;5112701;28;19924;-73
2021/07/28 03:20:05;;;;;;;;;;;;;;;16.59;73.62;101187.44;5112934;28;20378;-73
2021/07/28 03:22:32;;;;;;;;;;;;;;;16.77;72.40;101187.84;5112432;28;20278;-73
2021/07/28 03:25:00;;;;;;;;;;;;;;;16.94;72.12;101184.00;5113195;28;19924;-73
2021/07/28 03:27:26;;;;;;;;;;;;;;;17.03;72.40;101179.84;5113171;28;19923;-73
2021/07/28 03:29:53;;;;;;;;;;;;;;;17.23;71.38;101170.44;5112503;28;19936;-73
2021/07/28 03:32:19;;;;;;;;;;;;;;;17.30;71.24;101174.28;5112825;28;20374;-73
2021/07/28 03:34:46;;;;;;;;;;;;;;;17.44;71.10;101170.59;5112786;28;19924;-73
2021/07/28 03:37:12;;;;;;;;;;;;;;;17.33;71.86;101177.50;5115811;28;20453;-73
2021/07/28 03:39:39;;;;;;;;;;;;;;;17.58;70.59;101170.38;5116903;28;19923;-73
2021/07/28 03:42:07;;;;;;;;;;;;;;;17.53;71.93;101175.16;5116924;28;19924;-73
2021/07/28 03:44:34;;;;;;;;;;;;;;;17.61;71.11;101176.22;5116618;28;20456;-73
2021/07/28 03:47:01;;;;;;;;;;;;;;;17.73;70.98;101177.06;5116957;28;19924;-73
2021/07/28 03:49:27;;;;;;;;;;;;;;;17.74;70.89;101177.91;5116967;28;19924;-73
2021/07/28 03:51:54;;;;;;;;;;;;;;;17.75;70.92;101182.19;5116590;27;19928;-73
2021/07/28 03:54:20;;;;;;;;;;;;;;;17.70;70.81;101173.81;5116656;28;20296;-73
2021/07/28 03:56:47;;;;;;;;;;;;;;;17.69;71.48;101175.63;5116311;28;19923;-73
2021/07/28 03:59:15;;;;;;;;;;;;;;;17.69;71.45;101169.53;5116519;28;20408;-73
2021/07/28 04:01:42;;;;;;;;;;;;;;;17.71;71.20;101168.44;5116111;28;20365;-72
2021/07/28 04:04:08;;;;;;;;;;;;;;;17.79;70.74;101159.94;5116743;28;19931;-73
2021/07/28 04:06:35;;;;;;;;;;;;;;;17.89;69.46;101165.34;5116153;28;19928;-73
2021/07/28 04:09:01;;;;;;;;;;;;;;;17.84;67.28;101163.09;5116634;28;19946;-73
2021/07/28 04:11:28;;;;;;;;;;;;;;;17.71;69.65;101167.63;5116266;28;19924;-73
2021/07/28 04:13:54;;;;;;;;;;;;;;;17.73;68.54;101161.28;5116598;28;19950;-73
2021/07/28 04:16:22;;;;;;;;;;;;;;;17.70;69.38;101158.03;5116502;28;19931;-73
2021/07/28 04:18:49;;;;;;;;;;;;;;;17.79;68.43;101152.06;5116216;27;20337;-73
2021/07/28 04:21:16;;;;;;;;;;;;;;;17.87;69.13;101147.03;5116145;28;19930;-73
2021/07/28 04:23:42;;;;;;;;;;;;;;;17.97;67.53;101147.97;5115680;28;20529;-73
2021/07/28 04:26:09;;;;;;;;;;;;;;;18.21;65.72;101149.59;5116387;28;19931;-73
2021/07/28 04:28:35;;;;;;;;;;;;;;;18.12;67.69;101143.28;5115748;28;19928;-73
2021/07/28 04:31:02;;;;;;;;;;;;;;;18.35;66.21;101148.50;5115922;28;20306;-74
2021/07/28 04:33:30;;;;;;;;;;;;;;;18.44;65.80;101142.47;5115770;28;19963;-73
2021/07/28 04:35:57;;;;;;;;;;;;;;;18.49;66.20;101137.66;5115689;28;19930;-73
2021/07/28 04:38:23;;;;;;;;;;;;;;;18.61;66.51;101143.72;5115814;28;20386;-73
2021/07/28 04:40:51;;;;;;;;;;;;;;;18.64;66.55;101133.75;5115867;28;19927;-73
2021/07/28 04:43:17;;;;;;;;;;;;;;;18.80;66.01;101135.97;5115758;28;20385;-73
2021/07/28 04:45:44;;;;;;;;;;;;;;;18.70;66.08;101129.75;5115643;28;19930;-73
2021/07/28 04:48:11;;;;;;;;;;;;;;;18.78;67.22;101126.50;5114648;28;19924;-73
2021/07/28 04:50:39;;;;;;;;;;;;;;;18.98;64.00;101127.47;5115642;28;19924;-73
2021/07/28 04:53:05;;;;;;;;;;;;;;;19.09;64.23;101130.06;5115844;28;19928;-73
2021/07/28 04:55:33;;;;;;;;;;;;;;;19.32;63.70;101122.81;5115020;28;19924;-73
2021/07/28 04:57:59;;;;;;;;;;;;;;;19.40;64.06;101119.50;5115644;28;19977;-73
2021/07/28 05:00:26;;;;;;;;;;;;;;;19.49;62.66;101124.81;5115388;28;20274;-73
2021/07/28 05:02:53;;;;;;;;;;;;;;;19.63;63.10;101118.34;5115088;28;20009;-73
2021/07/28 05:05:19;;;;;;;;;;;;;;;19.85;61.14;101116.47;5115196;28;19931;-73
2021/07/28 05:07:47;;;;;;;;;;;;;;;19.92;61.43;101114.97;5115006;28;19932;-73
2021/07/28 05:10:14;;;;;;;;;;;;;;;20.19;60.98;101130.13;5115121;28;19924;-73
2021/07/28 05:12:40;;;;;;;;;;;;;;;20.20;61.09;101130.00;5114865;28;19930;-73
2021/07/28 05:15:08;;;;;;;;;;;;;;;20.47;60.28;101119.72;5115038;28;20396;-73
2021/07/28 05:17:34;;;;;;;;;;;;;;;20.56;60.20;101126.84;5114829;28;20397;-73
2021/07/28 05:20:01;;;;;;;;;;;;;;;20.59;59.71;101116.00;5115180;28;19930;-73
2021/07/28 05:22:27;;;;;;;;;;;;;;;20.55;58.92;101123.38;5115112;28;19923;-73
2021/07/28 05:24:55;;;;;;;;;;;;;;;20.89;57.45;101117.63;5115171;28;19924;-73
2021/07/28 05:27:22;;;;;;;;;;;;;;;21.00;55.82;101109.50;5115172;28;19977;-73
2021/07/28 05:29:49;;;;;;;;;;;;;;;20.98;56.44;101105.34;5114547;28;19932;-73
2021/07/28 05:32:16;;;;;;;;;;;;;;;21.03;55.62;101105.75;5114748;28;20305;-73
2021/07/28 05:34:42;;;;;;;;;;;;;;;21.17;55.09;101099.16;5114397;28;20427;-73
2021/07/28 05:37:09;;;;;;;;;;;;;;;21.27;54.68;101100.78;5114731;28;19924;-73
2021/07/28 05:39:35;;;;;;;;;;;;;;;21.25;55.71;101101.91;5114344;28;19928;-73
2021/07/28 05:42:03;;;;;;;;;;;;;;;21.44;53.10;101093.91;5114591;27;20378;-73
2021/07/28 05:44:32;;;;;;;;;;;;;;;21.68;52.24;101089.88;5114252;28;19998;-73
2021/07/28 05:46:58;;;;;;;;;;;;;;;21.73;52.04;101085.81;5114417;28;19974;-73
2021/07/28 05:49:25;;;;;;;;;;;;;;;21.83;52.51;101090.22;5114688;28;19946;-73
2021/07/28 05:51:51;;;;;;;;;;;;;;;21.80;52.43;101085.22;5114451;28;19938;-73
2021/07/28 05:54:18;;;;;;;;;;;;;;;21.92;51.35;101079.56;5114331;27;19923;-73
2021/07/28 05:56:44;;;;;;;;;;;;;;;22.01;53.43;101077.81;5113870;28;20392;-73
2021/07/28 05:59:12;;;;;;;;;;;;;;;22.27;50.88;101077.06;5114525;28;19935;-72
2021/07/28 06:01:39;;;;;;;;;;;;;;;22.38;52.76;101071.56;5114642;27;19924;-73
2021/07/28 06:04:06;;;;;;;;;;;;;;;22.20;51.34;101071.56;5114106;28;19924;-73
2021/07/28 06:06:32;;;;;;;;;;;;;;;22.35;51.29;101070.03;5114149;28;19930;-74
2021/07/28 06:08:59;;;;;;;;;;;;;;;22.44;50.97;101073.56;5114004;28;20370;-73
2021/07/28 06:11:25;;;;;;;;;;;;;;;22.54;50.90;101063.72;5113916;28;19924;-73
2021/07/28 06:13:52;;;;;;;;;;;;;;;22.51;50.01;101057.91;5113677;28;19931;-73
2021/07/28 06:16:20;;;;;;;;;;;;;;;22.82;47.26;101053.78;5114300;28;19931;-73
2021/07/28 06:18:47;;;;;;;;;;;;;;;22.81;47.94;101059.22;5113775;28;19990;-73
2021/07/28 06:21:13;;;;;;;;;;;;;;;22.95;46.95;101049.88;5114106;28;19931;-73
2021/07/28 06:23:40;;;;;;;;;;;;;;;23.12;46.94;101051.66;5113341;28;19931;-73
2021/07/28 06:26:07;;;;;;;;;;;;;;;23.07;47.24;101045.13;5113638;28;19928;-74
2021/07/28 06:28:33;;;;;;;;;;;;;;;23.17;47.26;101049.34;5113394;28;20370;-74
2021/07/28 06:31:00;;;;;;;;;;;;;;;23.20;44.11;101043.72;5113872;28;19924;-74
2021/07/28 06:33:28;;;;;;;;;;;;;;;23.07;45.60;101048.66;5113560;28;19928;-74
2021/07/28 06:35:55;;;;;;;;;;;;;;;23.29;45.22;101047.22;5113441;28;19923;-73
2021/07/28 06:38:21;;;;;;;;;;;;;;;23.37;44.88;101038.47;5113810;28;19949;-74
2021/07/28 06:40:48;;;;;;;;;;;;;;;23.53;44.21;101035.88;5113077;28;19924;-74
2021/07/28 06:43:15;;;;;;;;;;;;;;;23.65;44.85;101033.72;5113615;28;19930;-74
2021/07/28 06:45:42;;;;;;;;;;;;;;;23.73;45.30;101040.91;5113355;28;19931;-69
2021/07/28 06:48:09;;;;;;;;;;;;;;;23.79;43.74;101035.78;5113515;28;20018;-73
2021/07/28 06:50:37;;;;;;;;;;;;;;;23.74;42.91;101038.09;5112998;28;19924;-73
2021/07/28 06:53:03;;;;;;;;;;;;;;;23.87;42.31;101037.63;5113270;28;19930;-73
2021/07/28 06:55:30;;;;;;;;;;;;;;;24.01;43.27;101030.81;5113212;28;19924;-73
2021/07/28 06:57:57;;;;;;;;;;;;;;;24.26;43.88;101027.16;5112994;28;19928;-73
2021/07/28 07:00:23;;;;;;;;;;;;;;;24.92;42.27;101025.22;5113468;28;19923;-74
2021/07/28 07:02:50;;;;;;;;;;;;;;;25.11;42.33;101021.31;5112822;28;19927;-73
2021/07/28 07:05:16;;;;;;;;;;;;;;;24.80;42.14;101010.63;5113070;28;19923;-73
2021/07/28 07:07:48;;;;;;;;;;;;;;;24.67;41.62;101013.81;5113016;28;20298;-73
2021/07/28 07:10:14;;;;;;;;;;;;;;;24.81;40.72;101000.81;5113063;28;19923;-72
2021/07/28 07:12:41;;;;;;;;;;;;;;;24.60;41.82;101002.19;5112490;28;19923;-73
2021/07/28 07:15:08;;;;;;;;;;;;;;;25.15;41.25;101006.69;5112913;28;20417;-72
2021/07/28 07:17:35;;;;;;;;;;;;;;;26.16;39.52;101006.72;5112509;28;19924;-73
2021/07/28 07:20:01;;;;;;;;;;;;;;;27.24;37.58;101005.41;5113100;28;19923;-73
2021/07/28 07:22:28;;;;;;;;;;;;;;;27.66;35.56;101007.28;5113073;28;19940;-73
2021/07/28 07:24:56;;;;;;;;;;;;;;;27.82;34.49;101008.06;5112883;28;19924;-73
2021/07/28 07:27:23;;;;;;;;;;;;;;;27.16;34.96;100992.94;5113150;28;19976;-73
2021/07/28 07:29:50;;;;;;;;;;;;;;;27.03;35.35;100998.13;5112340;28;19928;-73
2021/07/28 07:32:20;;;;;;;;;;;;;;;27.55;35.16;100999.78;5112780;28;19966;-73
2021/07/28 07:34:46;;;;;;;;;;;;;;;28.51;34.18;101000.19;5112446;28;20324;-73
2021/07/28 07:37:13;;;;;;;;;;;;;;;28.97;33.09;100994.25;5112671;28;19924;-73
2021/07/28 07:39:40;;;;;;;;;;;;;;;29.82;31.01;100991.22;5112303;28;19923;-74
2021/07/28 07:42:08;;;;;;;;;;;;;;;28.99;33.36;100991.38;5112766;28;20285;-74
2021/07/28 07:44:34;;;;;;;;;;;;;;;29.65;31.44;100993.50;5112501;28;20385;-75
2021/07/28 07:47:01;;;;;;;;;;;;;;;29.57;30.58;100991.78;5112672;28;19923;-72
2021/07/28 07:49:28;;;;;;;;;;;;;;;30.47;30.30;100992.25;5112985;28;20010;-73
2021/07/28 07:51:54;;;;;;;;;;;;;;;30.28;30.72;100985.84;5112876;28;19989;-73
2021/07/28 07:54:21;;;;;;;;;;;;;;;30.68;28.68;100987.63;5112938;28;19924;-73
2021/07/28 07:56:47;;;;;;;;;;;;;;;30.99;29.07;100984.25;5112275;28;19924;-74
2021/07/28 07:59:15;;;;;;;;;;;;;;;31.16;28.51;100982.72;5112551;28;20396;-74
2021/07/28 08:01:42;;;;;;;;;;;;;;;30.01;28.34;100973.50;5111912;28;20424;-73
2021/07/28 08:04:08;;;;;;;;;;;;;;;28.53;30.73;100976.75;5112869;28;19927;-73
2021/07/28 08:06:35;;;;;;;;;;;;;;;30.42;29.28;100973.25;5112192;28;19924;-74
2021/07/28 08:09:02;;;;;;;;;;;;;;;30.05;30.10;100980.06;5112474;28;20301;-73
2021/07/28 08:11:28;;;;;;;;;;;;;;;31.42;27.72;100975.56;5112443;28;19928;-73
2021/07/28 08:13:55;;;;;;;;;;;;;;;32.53;26.64;100974.03;5112311;28;19931;-74
2021/07/28 08:16:23;;;;;;;;;;;;;;;33.35;25.60;100977.13;5112547;28;19924;-75
2021/07/28 08:18:50;;;;;;;;;;;;;;;32.68;26.42;100971.78;5112089;28;19934;-74
2021/07/28 08:21:17;;;;;;;;;;;;;;;32.22;27.84;100965.00;5112347;28;19931;-74
2021/07/28 08:23:46;;;;;;;;;;;;;;;33.46;25.86;100969.28;5113922;28;19923;-75
2021/07/28 08:26:13;;;;;;;;;;;;;;;33.99;24.73;100963.06;5116377;28;19931;-75
2021/07/28 08:28:39;;;;;;;;;;;;;;;33.20;26.73;100957.03;5115648;28;20043;-77
2021/07/28 08:31:06;;;;;;;;;;;;;;;32.70;26.30;100958.06;5115953;28;19924;-77
2021/07/28 08:33:34;;;;;;;;;;;;;;;34.60;24.34;100952.81;5115662;28;20293;-77
2021/07/28 08:36:02;;;;;;;;;;;;;;;34.34;24.62;100951.44;5116072;27;19930;-77
2021/07/28 08:38:29;;;;;;;;;;;;;;;35.02;24.23;100945.25;5115715;28;19927;-78
2021/07/28 08:41:00;;;;;;;;;;;;;;;34.60;24.53;100944.69;5115652;28;19931;-78
2021/07/28 08:43:27;;;;;;;;;;;;;;;34.95;24.16;100936.47;5116096;27;19923;-75
2021/07/28 08:45:56;;;;;;;;;;;;;;;36.21;21.80;100946.13;5115997;28;19924;-81
2021/07/28 08:48:23;;;;;;;;;;;;;;;37.05;21.33;100947.72;5115992;28;19924;-80
2021/07/28 08:50:52;;;;;;;;;;;;;;;35.75;23.30;100945.44;5115691;28;19954;-77
2021/07/28 08:53:19;;;;;;;;;;;;;;;35.29;24.27;100939.25;5115456;28;19973;-79
2021/07/28 08:55:45;;;;;;;;;;;;;;;35.89;23.91;100937.78;5115548;28;19924;-82
2021/07/28 08:58:14;;;;;;;;;;;;;;;36.61;21.30;100936.94;5115711;28;19946;-80
2021/07/28 09:00:44;;;;;;;;;;;;;;;35.37;23.63;100927.22;5115502;28;19924;-74
2021/07/28 09:03:11;;;;;;;;;;;;;;;35.40;23.34;100932.13;5115031;28;20009;-78
2021/07/28 09:05:41;;;;;;;;;;;;;;;33.62;25.05;100936.28;5115394;27;19924;-78
2021/07/28 09:08:21;;;;;;;;;;;;;;;33.56;25.73;100935.34;5114660;28;19924;-78
2021/07/28 09:10:49;;;;;;;;;;;;;;;34.31;25.11;100933.00;5112908;28;19924;-78
2021/07/28 09:13:15;;;;;;;;;;;;;;;35.90;23.12;100925.91;5113216;28;20302;-78
2021/07/28 09:15:43;;;;;;;;;;;;;;;36.83;21.53;100926.03;5113203;28;19931;-78
2021/07/28 09:18:29;;;;;;;;;;;;;;;35.05;23.65;100919.63;5112966;28;19924;-78
2021/07/28 09:20:55;;;;;;;;;;;;;;;36.77;21.20;100919.75;5113472;28;19923;-78
2021/07/28 09:23:32;;;;;;;;;;;;;;;37.20;19.73;100917.19;5114139;28;20011;-78
2021/07/28 09:25:59;;;;;;;;;;;;;;;36.21;21.38;100916.34;5114882;28;19928;-78
2021/07/28 09:28:26;;;;;;;;;;;;;;;36.67;21.48;100914.22;5114898;28;20366;-78
2021/07/28 09:30:52;;;;;;;;;;;;;;;36.39;22.42;100905.19;5114522;28;19924;-77
2021/07/28 09:33:19;;;;;;;;;;;;;;;37.60;21.64;100915.91;5115005;28;20040;-77
2021/07/28 09:36:10;;;;;;;;;;;;;;;35.06;23.31;100908.56;5114356;28;19928;-77
2021/07/28 09:38:43;;;;;;;;;;;;;;;35.36;23.98;100903.97;5114638;28;19956;-78
2021/07/28 09:41:18;;;;;;;;;;;;;;;36.80;23.34;100904.88;5114983;28;19928;-78
2021/07/28 09:43:46;;;;;;;;;;;;;;;36.07;22.64;100906.91;5114252;28;19931;-78
2021/07/28 09:46:20;;;;;;;;;;;;;;;36.60;22.22;100908.97;5114783;28;19923;-77
2021/07/28 09:48:47;;;;;;;;;;;;;;;36.61;22.73;100899.00;5114300;28;20278;-77
2021/07/28 09:51:21;;;;;;;;;;;;;;;37.35;21.56;100901.03;5114733;28;19923;-78
2021/07/28 09:53:52;;;;;;;;;;;;;;;38.30;18.57;100894.84;5114434;28;19923;-78
2021/07/28 09:56:23;;;;;;;;;;;;;;;37.60;20.40;100900.44;5114554;28;19950;-76
2021/07/28 09:58:50;;;;;;;;;;;;;;;37.34;22.25;100890.47;5114331;28;19931;-77
2021/07/28 10:01:17;;;;;;;;;;;;;;;37.35;21.10;100887.47;5114533;28;19924;-77
2021/07/28 10:03:45;;;;;;;;;;;;;;;38.60;19.13;100882.47;5113756;28;19924;-77
2021/07/28 10:06:12;;;;;;;;;;;;;;;37.44;19.03;100883.22;5114728;28;19923;-78
2021/07/28 10:08:39;;;;;;;;;;;;;;;34.92;25.23;100880.19;5113710;28;19935;-78
2021/07/28 10:11:07;;;;;;;;;;;;;;;36.71;20.54;100868.44;5114023;28;19924;-77
2021/07/28 10:13:34;;;;;;;;;;;;;;;36.58;22.04;100875.09;5114034;28;19930;-77
2021/07/28 10:16:01;;;;;;;;;;;;;;;37.45;21.22;100873.97;5113977;28;20396;-78
2021/07/28 10:18:27;;;;;;;;;;;;;;;37.08;21.09;100876.69;5114026;28;19938;-78
2021/07/28 10:20:54;;;;;;;;;;;;;;;39.26;19.92;100877.13;5113659;28;19923;-78
2021/07/28 10:23:21;;;;;;;;;;;;;;;38.62;19.34;100866.72;5114119;28;19930;-78
2021/07/28 10:25:47;;;;;;;;;;;;;;;38.82;19.67;100863.19;5113418;28;19923;-78
2021/07/28 10:28:17;;;;;;;;;;;;;;;38.62;19.51;100867.53;5113778;28;19930;-78
2021/07/28 10:30:45;;;;;;;;;;;;;;;40.27;18.56;100871.75;5113423;28;20293;-78
2021/07/28 10:33:24;;;;;;;;;;;;;;;38.60;18.82;100866.97;5113563;28;19924;-78
2021/07/28 10:35:50;;;;;;;;;;;;;;;38.76;19.80;100860.47;5113630;28;19923;-78
2021/07/28 10:38:20;;;;;;;;;;;;;;;38.91;19.47;100859.72;5113497;28;19923;-78
2021/07/28 10:40:58;;;;;;;;;;;;;;;39.38;18.74;100857.81;5113592;28;19930;-78
2021/07/28 10:43:26;;;;;;;;;;;;;;;40.47;17.62;100858.00;5113722;28;20289;-78
2021/07/28 10:45:54;;;;;;;;;;;;;;;40.17;18.00;100856.22;5112542;28;19924;-78
2021/07/28 10:48:38;;;;;;;;;;;;;;;40.40;17.53;100849.31;5113711;28;19985;-77
2021/07/28 10:51:05;;;;;;;;;;;;;;;38.62;19.74;100848.50;5106210;28;19930;-77
2021/07/28 10:53:47;;;;;;;;;;;;;;;38.47;20.36;100838.41;5113373;28;20289;-78
2021/07/28 10:56:14;;;;;;;;;;;;;;;39.40;19.03;100839.31;5113438;28;19969;-78
2021/07/28 10:58:42;;;;;;;;;;;;;;;39.17;19.09;100837.94;5112798;28;19931;-78
2021/07/28 11:01:09;;;;;;;;;;;;;;;38.52;19.54;100834.91;5113204;28;20386;-77
2021/07/28 11:03:39;;;;;;;;;;;;;;;39.14;18.16;100833.88;5112579;27;19923;-73
2021/07/28 11:06:21;;;;;;;;;;;;;;;37.21;19.78;100832.03;5112688;28;20212;-74
2021/07/28 11:08:48;;;;;;;;;;;;;;;39.27;19.14;100820.78;5113055;28;20044;-76
2021/07/28 11:11:22;;;;;;;;;;;;;;;38.33;19.82;100827.22;5113215;28;19924;-77
2021/07/28 11:13:50;;;;;;;;;;;;;;;38.49;18.85;100824.56;5113090;28;19924;-77
2021/07/28 11:16:17;;;;;;;;;;;;;;;39.34;18.19;100816.72;5112980;28;19924;-78
2021/07/28 11:18:44;;;;;;;;;;;;;;;40.76;17.30;100810.91;5112606;28;19939;-75
2021/07/28 11:21:12;;;;;;;;;;;;;;;39.49;18.43;100813.16;5112836;28;19930;-77
2021/07/28 11:23:40;;;;;;;;;;;;;;;39.39;19.24;100802.31;5112990;28;19924;-75
2021/07/28 11:26:12;;;;;;;;;;;;;;;39.42;18.96;100805.28;5113206;28;19924;-74
2021/07/28 11:28:39;;;;;;;;;;;;;;;39.25;18.44;100804.72;5113060;28;19997;-73
2021/07/28 11:31:07;;;;;;;;;;;;;;;39.02;18.24;100794.44;5113077;28;19924;-73
2021/07/28 11:33:34;;;;;;;;;;;;;;;39.16;19.25;100796.31;5112540;28;20305;-76
2021/07/28 11:36:01;;;;;;;;;;;;;;;39.45;19.64;100795.75;5113098;28;19923;-78
2021/07/28 11:38:29;;;;;;;;;;;;;;;40.07;18.02;100788.16;5112587;28;19931;-75
2021/07/28 11:40:57;;;;;;;;;;;;;;;40.63;18.33;100789.72;5112762;28;20381;-76
2021/07/28 11:43:26;;;;;;;;;;;;;;;40.05;19.71;100788.47;5112987;28;19924;-78
2021/07/28 11:45:53;;;;;;;;;;;;;;;39.80;20.21;100788.59;5112640;28;20010;-75
2021/07/28 11:48:31;;;;;;;;;;;;;;;41.88;17.35;100786.31;5112723;28;19927;-76
2021/07/28 11:50:58;;;;;;;;;;;;;;;40.63;18.52;100770.66;5112640;28;20327;-76
2021/07/28 11:53:25;;;;;;;;;;;;;;;39.84;19.70;100776.81;5112817;28;19923;-75
2021/07/28 11:55:53;;;;;;;;;;;;;;;40.75;17.96;100778.47;5112370;28;19924;-76
2021/07/28 11:58:19;;;;;;;;;;;;;;;40.42;17.77;100765.34;5115834;28;19969;-78
2021/07/28 12:00:48;;;;;;;;;;;;;;;39.42;19.76;100769.91;5116202;28;19923;-75
2021/07/28 12:03:21;;;;;;;;;;;;;;;38.60;20.16;100769.13;5116383;28;19966;-75
2021/07/28 12:05:58;;;;;;;;;;;;;;;39.63;18.71;100772.53;5116462;28;19924;-74
2021/07/28 12:08:31;;;;;;;;;;;;;;;37.45;20.97;100770.06;5116441;27;20529;-74
2021/07/28 12:11:04;;;;;;;;;;;;;;;36.89;21.83;100767.75;5116673;28;19924;-76
2021/07/28 12:13:41;;;;;;;;;;;;;;;36.66;21.95;100760.84;5116055;28;20409;-75
2021/07/28 12:16:07;;;;;;;;;;;;;;;38.33;21.13;100751.16;5116443;28;19924;-75
2021/07/28 12:18:41;;;;;;;;;;;;;;;36.78;21.72;100752.50;5115914;27;19924;-74
2021/07/28 12:21:09;;;;;;;;;;;;;;;37.52;21.47;100742.72;5116091;28;19977;-75
2021/07/28 12:23:36;;;;;;;;;;;;;;;38.10;20.55;100738.88;5116108;28;19924;-74
2021/07/28 12:26:03;;;;;;;;;;;;;;;37.16;20.85;100737.91;5116473;28;19924;-76
2021/07/28 12:28:53;;;;;;;;;;;;;;;36.93;22.80;100739.06;5116182;28;19924;-78
2021/07/28 12:31:26;;;;;;;;;;;;;;;39.40;20.19;100733.16;5105212;28;19923;-75
2021/07/28 12:33:53;;;;;;;;;;;;;;;38.33;21.23;100732.13;5115953;28;20307;-76
2021/07/28 12:36:28;;;;;;;;;;;;;;;38.10;21.12;100727.19;5116248;28;19924;-77
2021/07/28 12:38:55;;;;;;;;;;;;;;;37.98;21.04;100715.78;5115779;28;20023;-77
2021/07/28 12:41:23;;;;;;;;;;;;;;;37.39;22.03;100717.69;5115746;28;19924;-76